createdAt,value
2019-03-20T00:00:38.888Z,0
2019-03-20T00:01:48.469Z,0
2019-03-20T00:02:38.342Z,0
2019-03-20T00:03:38.822Z,0
2019-03-20T00:04:48.953Z,0
2019-03-20T00:05:38.537Z,0
2019-03-20T00:06:38.912Z,0
2019-03-20T00:07:38.756Z,0
2019-03-20T00:08:38.471Z,0
2019-03-20T00:09:38.712Z,0
2019-03-20T00:16:15.936Z,0
2019-03-20T00:17:01.009Z,0
2019-03-20T00:22:30.678Z,0
2019-03-20T00:23:30.668Z,0
2019-03-20T00:24:30.636Z,0
2019-03-20T00:25:30.639Z,0
2019-03-20T00:26:30.613Z,0
2019-03-20T00:27:30.623Z,0
2019-03-20T00:28:30.325Z,0
2019-03-20T00:29:30.552Z,0
2019-03-20T00:30:30.561Z,0
2019-03-20T00:31:30.518Z,0
2019-03-20T00:32:30.254Z,0
2019-03-20T00:33:30.481Z,0
2019-03-20T00:34:30.484Z,0
2019-03-20T00:35:30.455Z,0
2019-03-20T00:36:30.430Z,0
2019-03-20T00:37:30.409Z,0
2019-03-20T00:38:30.147Z,0
2019-03-20T00:39:30.369Z,0
2019-03-20T00:40:30.187Z,0
2019-03-20T00:41:30.345Z,0
2019-03-20T00:42:29.830Z,0
2019-03-20T00:43:30.304Z,0
2019-03-20T00:44:30.288Z,0
2019-03-20T00:45:30.276Z,0
2019-03-20T00:46:30.015Z,0
2019-03-20T00:47:30.238Z,0
2019-03-20T00:48:30.226Z,0
2019-03-20T00:49:29.951Z,0
2019-03-20T00:50:30.177Z,0
2019-03-20T00:51:30.191Z,0
2019-03-20T00:52:30.148Z,0
2019-03-20T00:53:30.127Z,0
2019-03-20T00:54:30.112Z,0
2019-03-20T00:55:30.095Z,0
2019-03-20T00:56:30.078Z,0
2019-03-20T00:57:30.064Z,0
2019-03-20T00:58:30.042Z,0
2019-03-20T00:59:30.034Z,0
2019-03-20T01:00:30.021Z,0
2019-03-20T01:01:29.993Z,0
2019-03-20T01:02:29.974Z,0
2019-03-20T01:03:29.948Z,0
2019-03-20T01:04:29.684Z,0
2019-03-20T01:05:29.923Z,0
2019-03-20T01:06:29.902Z,0
2019-03-20T01:07:29.884Z,0
2019-03-20T01:08:29.862Z,0
2019-03-20T01:09:29.911Z,0
2019-03-20T01:10:29.839Z,0
2019-03-20T01:11:29.821Z,0
2019-03-20T01:12:29.795Z,0
2019-03-20T01:13:29.763Z,0
2019-03-20T01:14:29.507Z,0
2019-03-20T01:15:29.737Z,0
2019-03-20T01:16:29.715Z,0
2019-03-20T01:17:29.499Z,0
2019-03-20T01:18:29.526Z,0
2019-03-20T01:19:29.665Z,0
2019-03-20T01:20:29.651Z,0
2019-03-20T01:21:29.622Z,0
2019-03-20T01:22:29.607Z,0
2019-03-20T01:23:29.592Z,0
2019-03-20T01:24:29.571Z,0
2019-03-20T01:25:29.560Z,0
2019-03-20T01:26:29.287Z,0
2019-03-20T01:27:29.517Z,0
2019-03-20T01:28:29.250Z,0
2019-03-20T01:29:29.474Z,0
2019-03-20T01:30:29.211Z,0
2019-03-20T01:31:29.447Z,0
2019-03-20T01:32:29.430Z,0
2019-03-20T01:33:29.406Z,0
2019-03-20T01:34:29.385Z,0
2019-03-20T01:35:31.351Z,0
2019-03-20T01:36:29.359Z,0
2019-03-20T01:37:29.084Z,0
2019-03-20T01:38:29.076Z,0
2019-03-20T01:39:29.305Z,0
2019-03-20T01:40:29.274Z,0
2019-03-20T01:41:39.920Z,0
2019-03-20T01:42:29.245Z,0
2019-03-20T01:43:28.982Z,0
2019-03-20T01:44:28.951Z,0
2019-03-20T01:45:29.216Z,0
2019-03-20T01:46:29.166Z,0
2019-03-20T01:47:29.149Z,0
2019-03-20T01:48:28.882Z,0
2019-03-20T01:49:29.114Z,0
2019-03-20T01:50:29.089Z,0
2019-03-20T01:51:29.075Z,0
2019-03-20T01:52:29.060Z,0
2019-03-20T01:53:29.026Z,0
2019-03-20T01:54:29.024Z,0
2019-03-20T01:55:28.997Z,0
2019-03-20T01:56:28.982Z,0
2019-03-20T01:57:28.960Z,0
2019-03-20T01:58:28.939Z,0
2019-03-20T01:59:28.677Z,0
2019-03-20T02:00:28.906Z,0
2019-03-20T02:01:28.886Z,0
2019-03-20T02:02:28.870Z,0
2019-03-20T02:03:28.599Z,0
2019-03-20T02:04:28.824Z,0
2019-03-20T02:05:39.873Z,0
2019-03-20T02:06:28.799Z,0
2019-03-20T02:07:28.781Z,0
2019-03-20T02:08:28.753Z,0
2019-03-20T02:09:28.756Z,0
2019-03-20T02:10:28.713Z,0
2019-03-20T02:11:28.688Z,0
2019-03-20T02:12:28.683Z,0
2019-03-20T02:13:28.167Z,0
2019-03-20T02:14:28.636Z,0
2019-03-20T02:15:40.447Z,0
2019-03-20T02:16:28.356Z,0
2019-03-20T02:17:28.335Z,0
2019-03-20T02:18:28.579Z,0
2019-03-20T02:19:28.547Z,0
2019-03-20T02:20:28.526Z,0
2019-03-20T02:21:28.506Z,0
2019-03-20T02:22:28.486Z,0
2019-03-20T02:23:28.218Z,0
2019-03-20T02:24:28.453Z,0
2019-03-20T02:25:28.178Z,0
2019-03-20T02:26:28.171Z,0
2019-03-20T02:27:28.387Z,0
2019-03-20T02:28:28.367Z,0
2019-03-20T02:29:28.106Z,0
2019-03-20T02:30:28.341Z,0
2019-03-20T02:31:28.337Z,0
2019-03-20T02:32:28.072Z,0
2019-03-20T02:33:28.308Z,0
2019-03-20T02:34:28.043Z,0
2019-03-20T02:35:28.249Z,0
2019-03-20T02:36:27.981Z,0
2019-03-20T02:37:28.067Z,0
2019-03-20T02:38:28.200Z,0
2019-03-20T02:39:28.172Z,0
2019-03-20T02:40:28.171Z,0
2019-03-20T02:41:28.148Z,0
2019-03-20T02:42:28.139Z,0
2019-03-20T02:43:27.843Z,0
2019-03-20T02:44:28.066Z,0
2019-03-20T02:45:28.049Z,0
2019-03-20T02:46:28.038Z,0
2019-03-20T02:47:28.020Z,0
2019-03-20T02:48:27.992Z,0
2019-03-20T02:49:27.972Z,0
2019-03-20T02:50:27.964Z,0
2019-03-20T02:51:27.949Z,0
2019-03-20T02:52:27.931Z,0
2019-03-20T02:53:28.204Z,0
2019-03-20T02:54:27.664Z,0
2019-03-20T02:55:27.622Z,0
2019-03-20T02:56:27.852Z,0
2019-03-20T02:57:27.817Z,0
2019-03-20T02:58:27.560Z,0
2019-03-20T02:59:27.847Z,0
2019-03-20T03:00:27.793Z,0
2019-03-20T03:01:27.759Z,0
2019-03-20T03:02:27.474Z,0
2019-03-20T03:03:27.714Z,0
2019-03-20T03:04:27.690Z,0
2019-03-20T03:05:27.665Z,0
2019-03-20T03:06:27.656Z,0
2019-03-20T03:07:27.647Z,0
2019-03-20T03:08:27.597Z,0
2019-03-20T03:09:27.807Z,0
2019-03-20T03:10:27.590Z,0
2019-03-20T03:11:27.333Z,0
2019-03-20T03:12:27.538Z,0
2019-03-20T03:13:27.273Z,0
2019-03-20T03:14:27.260Z,0
2019-03-20T03:15:27.483Z,0
2019-03-20T03:16:27.458Z,0
2019-03-20T03:17:27.205Z,0
2019-03-20T03:18:27.416Z,0
2019-03-20T03:19:27.397Z,0
2019-03-20T03:20:27.372Z,0
2019-03-20T03:21:27.379Z,0
2019-03-20T03:22:27.335Z,0
2019-03-20T03:23:27.072Z,0
2019-03-20T03:24:27.079Z,0
2019-03-20T03:25:27.330Z,0
2019-03-20T03:26:27.268Z,0
2019-03-20T03:27:27.254Z,0
2019-03-20T03:28:27.322Z,0
2019-03-20T03:29:27.248Z,0
2019-03-20T03:30:27.206Z,0
2019-03-20T03:31:27.092Z,0
2019-03-20T03:32:27.159Z,0
2019-03-20T03:33:27.168Z,0
2019-03-20T03:34:27.263Z,0
2019-03-20T03:35:27.665Z,0
2019-03-20T03:36:28.933Z,0
2019-03-20T03:37:27.059Z,0
2019-03-20T03:38:27.039Z,0
2019-03-20T03:39:26.772Z,0
2019-03-20T03:40:27.003Z,0
2019-03-20T03:41:26.972Z,0
2019-03-20T03:42:26.958Z,0
2019-03-20T03:43:29.316Z,0
2019-03-20T03:44:26.944Z,0
2019-03-20T03:45:26.940Z,0
2019-03-20T03:46:26.424Z,0
2019-03-20T03:47:26.882Z,0
2019-03-20T03:48:26.850Z,0
2019-03-20T03:49:26.826Z,0
2019-03-20T03:50:26.829Z,0
2019-03-20T03:51:26.779Z,0
2019-03-20T03:52:26.773Z,0
2019-03-20T03:53:26.765Z,0
2019-03-20T03:54:26.753Z,0
2019-03-20T03:55:26.712Z,0
2019-03-20T03:56:26.440Z,0
2019-03-20T03:57:26.679Z,0
2019-03-20T03:58:26.408Z,0
2019-03-20T03:59:26.414Z,0
2019-03-20T04:00:26.615Z,0
2019-03-20T04:01:26.579Z,0
2019-03-20T04:02:26.579Z,0
2019-03-20T04:03:26.559Z,0
2019-03-20T04:04:26.511Z,0
2019-03-20T04:05:26.309Z,0
2019-03-20T04:06:40.157Z,0
2019-03-20T04:07:28.621Z,0
2019-03-20T04:08:26.544Z,0
2019-03-20T04:09:26.425Z,0
2019-03-20T04:10:26.415Z,0
2019-03-20T04:11:26.378Z,0
2019-03-20T04:12:26.364Z,0
2019-03-20T04:13:26.099Z,0
2019-03-20T04:14:26.344Z,0
2019-03-20T04:15:26.300Z,0
2019-03-20T04:16:26.277Z,0
2019-03-20T04:17:26.348Z,0
2019-03-20T04:18:26.248Z,0
2019-03-20T04:19:26.222Z,0
2019-03-20T04:20:25.984Z,0
2019-03-20T04:21:26.214Z,0
2019-03-20T04:22:26.169Z,0
2019-03-20T04:23:26.172Z,0
2019-03-20T04:24:26.138Z,0
2019-03-20T04:25:26.107Z,0
2019-03-20T04:26:25.841Z,0
2019-03-20T04:27:26.090Z,0
2019-03-20T04:28:26.052Z,0
2019-03-20T04:29:26.055Z,0
2019-03-20T04:30:25.770Z,0
2019-03-20T04:31:25.998Z,0
2019-03-20T04:32:25.991Z,0
2019-03-20T04:33:25.965Z,0
2019-03-20T04:34:25.970Z,0
2019-03-20T04:35:25.916Z,0
2019-03-20T04:36:25.885Z,0
2019-03-20T04:37:25.867Z,0
2019-03-20T04:38:25.858Z,0
2019-03-20T04:39:25.349Z,0
2019-03-20T04:40:25.809Z,0
2019-03-20T04:41:25.783Z,0
2019-03-20T04:42:25.543Z,0
2019-03-20T04:43:25.774Z,0
2019-03-20T04:44:25.724Z,4
2019-03-20T04:45:25.717Z,0
2019-03-20T04:46:25.439Z,4
2019-03-20T04:47:25.661Z,4
2019-03-20T04:48:25.399Z,4
2019-03-20T04:49:25.628Z,4
2019-03-20T04:50:25.602Z,4
2019-03-20T04:51:25.581Z,8
2019-03-20T04:52:25.318Z,4
2019-03-20T04:53:25.541Z,8
2019-03-20T04:54:25.534Z,12
2019-03-20T04:55:25.504Z,12
2019-03-20T04:56:25.486Z,16
2019-03-20T04:57:25.468Z,20
2019-03-20T04:58:25.208Z,20
2019-03-20T04:59:25.176Z,28
2019-03-20T05:00:25.408Z,36
2019-03-20T05:01:25.142Z,40
2019-03-20T05:02:25.367Z,44
2019-03-20T05:03:25.102Z,52
2019-03-20T05:04:25.328Z,60
2019-03-20T05:05:25.329Z,68
2019-03-20T05:06:25.040Z,80
2019-03-20T05:07:25.270Z,92
2019-03-20T05:08:25.269Z,104
2019-03-20T05:09:25.234Z,116
2019-03-20T05:10:25.210Z,132
2019-03-20T05:11:24.942Z,148
2019-03-20T05:12:25.169Z,160
2019-03-20T05:13:25.149Z,180
2019-03-20T05:14:25.136Z,196
2019-03-20T05:15:25.115Z,216
2019-03-20T05:16:24.851Z,236
2019-03-20T05:17:25.131Z,260
2019-03-20T05:18:25.047Z,280
2019-03-20T05:19:25.025Z,304
2019-03-20T05:20:24.766Z,328
2019-03-20T05:21:24.991Z,352
2019-03-20T05:22:24.727Z,380
2019-03-20T05:23:24.950Z,404
2019-03-20T05:24:24.944Z,432
2019-03-20T05:25:24.903Z,464
2019-03-20T05:26:24.899Z,488
2019-03-20T05:27:24.626Z,520
2019-03-20T05:28:24.846Z,548
2019-03-20T05:29:24.595Z,576
2019-03-20T05:30:24.833Z,612
2019-03-20T05:31:24.542Z,640
2019-03-20T05:32:26.850Z,668
2019-03-20T05:33:24.818Z,696
2019-03-20T05:34:24.490Z,728
2019-03-20T05:35:24.732Z,756
2019-03-20T05:36:24.692Z,784
2019-03-20T05:37:24.680Z,812
2019-03-20T05:38:24.668Z,844
2019-03-20T05:39:24.634Z,872
2019-03-20T05:40:24.672Z,900
2019-03-20T05:41:24.591Z,928
2019-03-20T05:42:24.322Z,960
2019-03-20T05:43:24.303Z,988
2019-03-20T05:44:24.532Z,1016
2019-03-20T05:45:24.270Z,1040
2019-03-20T05:46:24.243Z,1068
2019-03-20T05:47:24.477Z,1092
2019-03-20T05:48:24.454Z,1116
2019-03-20T05:49:24.203Z,1136
2019-03-20T05:50:24.417Z,1160
2019-03-20T05:51:24.399Z,1184
2019-03-20T05:52:24.376Z,1204
2019-03-20T05:53:24.356Z,1228
2019-03-20T05:54:24.333Z,1248
2019-03-20T05:55:24.312Z,1268
2019-03-20T05:56:24.298Z,1292
2019-03-20T05:57:24.290Z,1312
2019-03-20T05:58:24.265Z,1336
2019-03-20T05:59:24.238Z,1356
2019-03-20T06:00:24.342Z,1372
2019-03-20T06:01:24.202Z,1396
2019-03-20T06:02:25.767Z,1412
2019-03-20T06:03:24.162Z,1424
2019-03-20T06:04:24.134Z,1444
2019-03-20T06:05:24.125Z,1460
2019-03-20T06:06:23.848Z,1476
2019-03-20T06:07:28.859Z,1496
2019-03-20T06:08:24.054Z,1508
2019-03-20T06:09:24.038Z,1524
2019-03-20T06:10:24.059Z,1540
2019-03-20T06:11:23.998Z,1556
2019-03-20T06:12:23.980Z,1568
2019-03-20T06:13:23.958Z,1612
2019-03-20T06:14:23.939Z,1644
2019-03-20T06:15:24.641Z,1628
2019-03-20T06:16:23.906Z,1648
2019-03-20T06:17:23.638Z,1716
2019-03-20T06:18:23.861Z,1712
2019-03-20T06:19:23.840Z,1692
2019-03-20T06:20:23.339Z,1716
2019-03-20T06:21:23.805Z,1748
2019-03-20T06:22:24.821Z,1844
2019-03-20T06:23:23.779Z,1968
2019-03-20T06:24:23.501Z,1900
2019-03-20T06:25:26.162Z,1824
2019-03-20T06:26:23.706Z,1796
2019-03-20T06:27:23.688Z,1784
2019-03-20T06:28:23.424Z,1796
2019-03-20T06:29:25.018Z,1820
2019-03-20T06:30:23.628Z,1828
2019-03-20T06:31:25.994Z,1932
2019-03-20T06:32:23.600Z,2000
2019-03-20T06:33:23.568Z,1972
2019-03-20T06:34:23.554Z,1936
2019-03-20T06:35:23.529Z,1960
2019-03-20T06:36:23.267Z,2008
2019-03-20T06:37:34.476Z,2152
2019-03-20T06:38:23.484Z,2272
2019-03-20T06:39:23.452Z,2312
2019-03-20T06:40:23.448Z,2204
2019-03-20T06:41:23.179Z,2136
2019-03-20T06:42:23.398Z,2132
2019-03-20T06:43:23.143Z,2076
2019-03-20T06:44:23.366Z,2028
2019-03-20T06:45:23.344Z,2020
2019-03-20T06:46:23.330Z,2028
2019-03-20T06:47:23.058Z,2044
2019-03-20T06:48:23.035Z,2076
2019-03-20T06:49:23.268Z,2088
2019-03-20T06:50:23.001Z,2088
2019-03-20T06:51:23.227Z,2096
2019-03-20T06:52:22.976Z,2112
2019-03-20T06:53:23.208Z,2120
2019-03-20T06:54:23.174Z,2144
2019-03-20T06:55:22.926Z,2152
2019-03-20T06:56:23.136Z,2164
2019-03-20T06:57:23.122Z,2176
2019-03-20T06:58:22.860Z,2196
2019-03-20T06:59:22.835Z,2216
2019-03-20T07:00:23.062Z,2220
2019-03-20T07:01:23.048Z,2224
2019-03-20T07:02:23.027Z,2228
2019-03-20T07:03:22.762Z,2232
2019-03-20T07:04:23.007Z,2232
2019-03-20T07:05:22.962Z,2236
2019-03-20T07:06:22.958Z,2240
2019-03-20T07:07:22.685Z,2248
2019-03-20T07:08:22.925Z,2256
2019-03-20T07:09:22.656Z,2264
2019-03-20T07:10:22.875Z,2272
2019-03-20T07:11:22.855Z,2280
2019-03-20T07:12:22.593Z,2288
2019-03-20T07:13:22.825Z,2296
2019-03-20T07:14:22.805Z,2300
2019-03-20T07:15:22.783Z,2300
2019-03-20T07:16:22.767Z,2308
2019-03-20T07:17:22.759Z,2312
2019-03-20T07:18:22.734Z,2320
2019-03-20T07:19:22.711Z,2328
2019-03-20T07:20:22.699Z,2332
2019-03-20T07:21:23.619Z,2332
2019-03-20T07:22:22.658Z,2332
2019-03-20T07:23:22.645Z,2340
2019-03-20T07:24:22.663Z,2340
2019-03-20T07:25:22.606Z,2348
2019-03-20T07:26:22.597Z,2352
2019-03-20T07:27:22.570Z,2356
2019-03-20T07:28:22.549Z,2360
2019-03-20T07:29:22.288Z,2364
2019-03-20T07:30:22.272Z,2368
2019-03-20T07:31:23.175Z,2372
2019-03-20T07:32:22.486Z,2376
2019-03-20T07:33:22.467Z,2384
2019-03-20T07:34:22.445Z,2384
2019-03-20T07:35:22.426Z,2380
2019-03-20T07:36:22.416Z,2384
2019-03-20T07:37:22.398Z,2388
2019-03-20T07:38:22.135Z,2388
2019-03-20T07:39:22.370Z,2392
2019-03-20T07:40:22.344Z,2396
2019-03-20T07:41:22.072Z,2392
2019-03-20T07:42:22.309Z,2396
2019-03-20T07:43:22.303Z,2404
2019-03-20T07:44:22.280Z,2408
2019-03-20T07:45:22.259Z,2420
2019-03-20T07:46:22.258Z,2432
2019-03-20T07:47:22.231Z,2440
2019-03-20T07:48:29.191Z,2448
2019-03-20T07:49:22.184Z,2460
2019-03-20T07:50:22.165Z,2464
2019-03-20T07:51:22.157Z,2476
2019-03-20T07:52:21.897Z,2492
2019-03-20T07:53:22.201Z,2504
2019-03-20T07:54:22.104Z,2516
2019-03-20T07:55:22.091Z,2524
2019-03-20T07:56:22.067Z,2540
2019-03-20T07:57:22.053Z,2544
2019-03-20T07:58:22.026Z,2564
2019-03-20T07:59:22.009Z,2576
2019-03-20T08:00:21.749Z,2580
2019-03-20T08:01:22.582Z,2604
2019-03-20T08:02:21.962Z,2620
2019-03-20T08:03:21.951Z,2636
2019-03-20T08:04:21.926Z,2652
2019-03-20T08:05:31.613Z,2668
2019-03-20T08:06:21.900Z,2680
2019-03-20T08:07:21.781Z,2692
2019-03-20T08:08:21.617Z,2700
2019-03-20T08:09:22.002Z,2712
2019-03-20T08:10:21.587Z,2716
2019-03-20T08:11:21.817Z,2724
2019-03-20T08:12:21.803Z,2724
2019-03-20T08:13:21.784Z,2736
2019-03-20T08:14:21.519Z,2744
2019-03-20T08:15:21.749Z,2756
2019-03-20T08:16:21.739Z,2768
2019-03-20T08:17:21.475Z,2772
2019-03-20T08:18:21.697Z,2768
2019-03-20T08:19:21.684Z,2768
2019-03-20T08:20:21.662Z,2772
2019-03-20T08:21:21.646Z,2780
2019-03-20T08:22:21.395Z,2776
2019-03-20T08:23:21.614Z,2784
2019-03-20T08:24:21.600Z,2792
2019-03-20T08:25:21.587Z,2796
2019-03-20T08:26:21.568Z,2796
2019-03-20T08:27:21.553Z,2792
2019-03-20T08:28:21.568Z,2796
2019-03-20T08:29:21.274Z,2788
2019-03-20T08:30:21.525Z,2784
2019-03-20T08:31:21.497Z,2776
2019-03-20T08:32:21.228Z,2776
2019-03-20T08:33:21.471Z,2776
2019-03-20T08:34:21.446Z,2768
2019-03-20T08:35:21.429Z,2768
2019-03-20T08:36:21.419Z,2764
2019-03-20T08:37:21.406Z,2764
2019-03-20T08:38:25.911Z,2768
2019-03-20T08:39:21.428Z,2776
2019-03-20T08:40:21.359Z,2776
2019-03-20T08:41:21.341Z,2780
2019-03-20T08:42:21.354Z,2780
2019-03-20T08:43:21.308Z,2776
2019-03-20T08:44:21.044Z,2772
2019-03-20T08:45:21.286Z,2764
2019-03-20T08:46:21.268Z,2764
2019-03-20T08:47:21.249Z,2768
2019-03-20T08:48:21.230Z,2776
2019-03-20T08:49:21.227Z,2788
2019-03-20T08:50:21.224Z,2792
2019-03-20T08:51:21.200Z,2788
2019-03-20T08:52:21.173Z,2788
2019-03-20T08:53:21.162Z,2804
2019-03-20T08:54:21.215Z,2832
2019-03-20T08:55:20.887Z,2848
2019-03-20T08:56:21.114Z,2848
2019-03-20T08:57:21.150Z,2848
2019-03-20T08:58:21.193Z,2840
2019-03-20T08:59:22.940Z,2832
2019-03-20T09:00:21.071Z,2828
2019-03-20T09:01:30.834Z,2848
2019-03-20T09:02:21.024Z,2876
2019-03-20T09:03:21.014Z,2900
2019-03-20T09:04:20.997Z,2904
2019-03-20T09:05:20.983Z,2912
2019-03-20T09:06:20.724Z,2912
2019-03-20T09:07:20.950Z,2904
2019-03-20T09:08:31.592Z,2888
2019-03-20T09:09:20.924Z,2880
2019-03-20T09:10:20.925Z,2896
2019-03-20T09:11:20.893Z,2916
2019-03-20T09:12:20.663Z,2904
2019-03-20T09:13:20.925Z,2896
2019-03-20T09:14:20.852Z,2896
2019-03-20T09:15:20.840Z,2912
2019-03-20T09:16:20.575Z,2924
2019-03-20T09:17:20.611Z,2920
2019-03-20T09:18:20.851Z,2920
2019-03-20T09:19:20.780Z,2916
2019-03-20T09:20:20.767Z,2900
2019-03-20T09:21:20.753Z,2884
2019-03-20T09:22:20.739Z,2848
2019-03-20T09:23:20.723Z,2872
2019-03-20T09:24:20.823Z,2880
2019-03-20T09:25:20.212Z,2880
2019-03-20T09:26:20.464Z,2872
2019-03-20T09:27:20.664Z,2856
2019-03-20T09:28:20.656Z,2852
2019-03-20T09:29:35.532Z,2848
2019-03-20T09:30:20.389Z,2828
2019-03-20T09:31:20.602Z,2836
2019-03-20T09:32:20.600Z,2824
2019-03-20T09:33:20.354Z,2812
2019-03-20T09:34:20.319Z,2808
2019-03-20T09:35:20.584Z,2820
2019-03-20T09:36:20.044Z,2848
2019-03-20T09:37:20.523Z,2864
2019-03-20T09:38:20.510Z,2884
2019-03-20T09:39:20.652Z,2892
2019-03-20T09:40:20.488Z,2888
2019-03-20T09:41:20.234Z,2872
2019-03-20T09:42:20.451Z,2868
2019-03-20T09:43:20.440Z,2852
2019-03-20T09:44:20.435Z,2824
2019-03-20T09:45:20.410Z,2820
2019-03-20T09:46:20.404Z,2828
2019-03-20T09:47:20.377Z,2828
2019-03-20T09:48:20.366Z,2824
2019-03-20T09:49:20.350Z,2836
2019-03-20T09:50:20.108Z,2844
2019-03-20T09:51:20.322Z,2856
2019-03-20T09:52:20.058Z,2856
2019-03-20T09:53:20.054Z,2852
2019-03-20T09:54:20.083Z,2848
2019-03-20T09:55:20.021Z,2848
2019-03-20T09:56:20.252Z,2828
2019-03-20T09:57:20.251Z,2812
2019-03-20T09:58:20.227Z,2788
2019-03-20T09:59:20.213Z,2772
2019-03-20T10:00:20.204Z,2768
2019-03-20T10:01:20.186Z,2764
2019-03-20T10:02:19.920Z,2768
2019-03-20T10:03:20.163Z,2780
2019-03-20T10:04:20.139Z,2800
2019-03-20T10:05:20.132Z,2804
2019-03-20T10:06:20.121Z,2812
2019-03-20T10:07:20.106Z,2800
2019-03-20T10:08:20.095Z,2792
2019-03-20T10:09:20.085Z,2784
2019-03-20T10:10:20.058Z,2780
2019-03-20T10:11:20.119Z,2772
2019-03-20T10:12:20.039Z,2764
2019-03-20T10:13:19.774Z,2756
2019-03-20T10:14:20.004Z,2744
2019-03-20T10:15:19.995Z,2740
2019-03-20T10:16:19.728Z,2740
2019-03-20T10:17:22.127Z,2748
2019-03-20T10:18:19.963Z,2760
2019-03-20T10:19:19.936Z,2764
2019-03-20T10:20:19.944Z,2780
2019-03-20T10:21:19.916Z,2792
2019-03-20T10:22:19.896Z,2796
2019-03-20T10:23:19.892Z,2780
2019-03-20T10:24:19.928Z,2760
2019-03-20T10:25:19.864Z,2720
2019-03-20T10:26:19.841Z,2696
2019-03-20T10:27:19.830Z,2676
2019-03-20T10:28:19.811Z,2664
2019-03-20T10:29:19.795Z,2652
2019-03-20T10:30:19.787Z,2640
2019-03-20T10:31:19.770Z,2632
2019-03-20T10:32:19.756Z,2624
2019-03-20T10:33:21.457Z,2612
2019-03-20T10:34:19.485Z,2600
2019-03-20T10:35:19.483Z,2580
2019-03-20T10:36:19.708Z,2584
2019-03-20T10:37:19.688Z,2588
2019-03-20T10:38:19.681Z,2588
2019-03-20T10:39:19.832Z,2588
2019-03-20T10:40:19.661Z,2580
2019-03-20T10:41:19.638Z,2560
2019-03-20T10:42:19.380Z,2556
2019-03-20T10:43:19.626Z,2556
2019-03-20T10:44:19.601Z,2548
2019-03-20T10:45:19.586Z,2536
2019-03-20T10:46:19.578Z,2532
2019-03-20T10:47:19.569Z,2536
2019-03-20T10:48:19.565Z,2536
2019-03-20T10:49:19.532Z,2540
2019-03-20T10:50:21.371Z,2540
2019-03-20T10:51:19.502Z,2552
2019-03-20T10:52:19.513Z,2560
2019-03-20T10:53:19.514Z,2564
2019-03-20T10:54:21.401Z,2572
2019-03-20T10:55:19.471Z,2584
2019-03-20T10:56:19.198Z,2592
2019-03-20T10:57:19.436Z,2600
2019-03-20T10:58:19.225Z,2608
2019-03-20T10:59:19.402Z,2608
2019-03-20T11:00:19.410Z,2612
2019-03-20T11:01:19.377Z,2608
2019-03-20T11:02:19.376Z,2608
2019-03-20T11:03:19.378Z,2604
2019-03-20T11:04:19.347Z,2608
2019-03-20T11:05:19.333Z,2604
2019-03-20T11:06:19.301Z,2600
2019-03-20T11:07:19.298Z,2588
2019-03-20T11:08:20.312Z,2576
2019-03-20T11:09:25.655Z,2560
2019-03-20T11:10:19.278Z,2552
2019-03-20T11:11:29.294Z,2540
2019-03-20T11:12:19.258Z,2532
2019-03-20T11:13:18.986Z,2520
2019-03-20T11:14:19.219Z,2516
2019-03-20T11:15:19.193Z,2508
2019-03-20T11:16:18.932Z,2504
2019-03-20T11:17:19.168Z,2492
2019-03-20T11:18:19.152Z,2484
2019-03-20T11:19:19.206Z,2472
2019-03-20T11:20:19.156Z,2460
2019-03-20T11:21:19.111Z,2460
2019-03-20T11:22:25.797Z,2448
2019-03-20T11:23:19.088Z,2444
2019-03-20T11:24:20.157Z,2444
2019-03-20T11:25:19.061Z,2440
2019-03-20T11:26:18.810Z,2444
2019-03-20T11:27:18.788Z,2440
2019-03-20T11:28:19.025Z,2432
2019-03-20T11:29:24.103Z,2432
2019-03-20T11:30:20.269Z,2428
2019-03-20T11:31:19.008Z,2428
2019-03-20T11:32:21.532Z,2424
2019-03-20T11:33:18.957Z,2424
2019-03-20T11:34:18.946Z,2428
2019-03-20T11:35:18.933Z,2424
2019-03-20T11:36:18.914Z,2424
2019-03-20T11:37:18.957Z,2416
2019-03-20T11:38:18.892Z,2412
2019-03-20T11:39:29.128Z,2404
2019-03-20T11:40:18.874Z,2400
2019-03-20T11:41:18.616Z,2404
2019-03-20T11:42:18.843Z,2400
2019-03-20T11:43:18.820Z,2396
2019-03-20T11:44:18.806Z,2392
2019-03-20T11:45:18.799Z,2388
2019-03-20T11:46:18.780Z,2388
2019-03-20T11:47:18.522Z,2388
2019-03-20T11:48:18.276Z,2384
2019-03-20T11:49:18.745Z,2388
2019-03-20T11:50:18.735Z,2380
2019-03-20T11:51:18.719Z,2388
2019-03-20T11:52:18.717Z,2384
2019-03-20T11:53:18.774Z,2384
2019-03-20T11:54:18.689Z,2388
2019-03-20T11:55:18.684Z,2384
2019-03-20T11:56:18.658Z,2380
2019-03-20T11:57:18.647Z,2376
2019-03-20T11:58:18.639Z,2376
2019-03-20T11:59:18.621Z,2376
2019-03-20T12:00:18.610Z,2372
2019-03-20T12:01:18.590Z,2384
2019-03-20T12:02:30.099Z,2364
2019-03-20T12:03:18.394Z,2356
2019-03-20T12:04:18.563Z,2356
2019-03-20T12:05:18.554Z,2352
2019-03-20T12:06:18.615Z,2352
2019-03-20T12:07:18.527Z,2352
2019-03-20T12:08:18.543Z,2348
2019-03-20T12:09:18.249Z,2348
2019-03-20T12:10:18.236Z,2340
2019-03-20T12:11:20.776Z,2336
2019-03-20T12:12:18.461Z,2336
2019-03-20T12:13:18.443Z,2332
2019-03-20T12:14:18.438Z,2324
2019-03-20T12:15:18.170Z,2320
2019-03-20T12:16:18.405Z,2320
2019-03-20T12:17:20.210Z,2316
2019-03-20T12:18:17.893Z,2316
2019-03-20T12:19:18.371Z,2312
2019-03-20T12:20:18.360Z,2304
2019-03-20T12:21:18.350Z,2300
2019-03-20T12:22:18.344Z,2292
2019-03-20T12:23:18.074Z,2288
2019-03-20T12:24:18.311Z,2284
2019-03-20T12:25:18.297Z,2280
2019-03-20T12:26:18.290Z,2276
2019-03-20T12:27:22.608Z,2268
2019-03-20T12:28:18.263Z,2268
2019-03-20T12:29:18.008Z,2260
2019-03-20T12:30:18.249Z,2256
2019-03-20T12:31:18.065Z,2252
2019-03-20T12:32:18.208Z,2248
2019-03-20T12:33:18.593Z,2248
2019-03-20T12:34:17.935Z,2248
2019-03-20T12:35:18.167Z,2244
2019-03-20T12:36:18.156Z,2244
2019-03-20T12:37:17.689Z,2244
2019-03-20T12:38:22.192Z,2240
2019-03-20T12:39:17.873Z,2236
2019-03-20T12:40:17.861Z,2232
2019-03-20T12:41:18.122Z,2232
2019-03-20T12:42:18.084Z,2228
2019-03-20T12:43:18.148Z,2228
2019-03-20T12:44:18.070Z,2220
2019-03-20T12:45:18.043Z,2216
2019-03-20T12:46:18.034Z,2220
2019-03-20T12:47:18.021Z,2220
2019-03-20T12:48:17.777Z,2220
2019-03-20T12:49:18.002Z,2220
2019-03-20T12:50:17.984Z,2220
2019-03-20T12:51:17.979Z,2212
2019-03-20T12:52:17.964Z,2208
2019-03-20T12:53:17.702Z,2204
2019-03-20T12:54:17.951Z,2200
2019-03-20T12:55:17.923Z,2196
2019-03-20T12:56:17.910Z,2196
2019-03-20T12:57:17.957Z,2188
2019-03-20T12:58:17.885Z,2188
2019-03-20T12:59:17.877Z,2184
2019-03-20T13:00:18.173Z,2184
2019-03-20T13:01:17.852Z,2188
2019-03-20T13:02:17.849Z,2192
2019-03-20T13:03:17.360Z,2188
2019-03-20T13:04:17.810Z,2188
2019-03-20T13:05:17.551Z,2184
2019-03-20T13:06:17.817Z,2184
2019-03-20T13:07:17.526Z,2180
2019-03-20T13:08:17.759Z,2184
2019-03-20T13:09:17.750Z,2180
2019-03-20T13:10:17.507Z,2180
2019-03-20T13:11:17.724Z,2184
2019-03-20T13:12:17.717Z,2184
2019-03-20T13:13:18.103Z,2188
2019-03-20T13:14:17.696Z,2192
2019-03-20T13:15:17.677Z,2196
2019-03-20T13:16:17.670Z,2204
2019-03-20T13:17:17.406Z,2208
2019-03-20T13:18:17.636Z,2208
2019-03-20T13:19:17.135Z,2208
2019-03-20T13:20:17.608Z,2208
2019-03-20T13:21:17.750Z,2208
2019-03-20T13:22:17.602Z,2204
2019-03-20T13:23:17.576Z,2200
2019-03-20T13:24:17.563Z,2200
2019-03-20T13:25:17.549Z,2208
2019-03-20T13:26:17.544Z,2204
2019-03-20T13:27:17.534Z,2220
2019-03-20T13:28:17.517Z,2228
2019-03-20T13:29:17.505Z,2232
2019-03-20T13:30:27.212Z,2240
2019-03-20T13:31:17.542Z,2240
2019-03-20T13:32:17.479Z,2240
2019-03-20T13:33:27.618Z,2232
2019-03-20T13:34:17.447Z,2228
2019-03-20T13:35:17.433Z,2224
2019-03-20T13:36:17.684Z,2216
2019-03-20T13:37:19.331Z,2212
2019-03-20T13:38:17.400Z,2208
2019-03-20T13:39:17.381Z,2204
2019-03-20T13:40:21.812Z,2188
2019-03-20T13:41:17.368Z,2172
2019-03-20T13:42:17.348Z,2164
2019-03-20T13:43:17.336Z,2152
2019-03-20T13:44:17.324Z,2140
2019-03-20T13:45:16.812Z,2128
2019-03-20T13:46:17.303Z,2116
2019-03-20T13:47:17.051Z,2108
2019-03-20T13:48:17.029Z,2108
2019-03-20T13:49:17.011Z,2112
2019-03-20T13:50:17.271Z,2120
2019-03-20T13:51:17.263Z,2120
2019-03-20T13:52:16.987Z,2124
2019-03-20T13:53:17.941Z,2120
2019-03-20T13:54:16.950Z,2128
2019-03-20T13:55:17.214Z,2152
2019-03-20T13:56:17.190Z,2180
2019-03-20T13:57:17.165Z,2204
2019-03-20T13:58:17.148Z,2236
2019-03-20T13:59:17.175Z,2256